createdAt,value
2022-08-27T00:02:49.888Z,6.75
2022-08-27T00:07:56.307Z,10.18
2022-08-27T00:13:02.465Z,6.44
2022-08-27T00:18:08.827Z,6.49
2022-08-27T00:23:15.023Z,6.69
2022-08-27T00:28:21.275Z,6.41
2022-08-27T00:33:27.505Z,4.16
2022-08-27T00:38:33.853Z,4.19
2022-08-27T00:43:40.137Z,6.49
2022-08-27T00:48:46.129Z,6.85
2022-08-27T00:53:52.262Z,6.90
2022-08-27T00:58:58.490Z,6.17
2022-08-27T01:04:04.818Z,7.27
2022-08-27T01:09:11.074Z,5.30
2022-08-27T01:14:17.279Z,7.59
2022-08-27T01:19:23.506Z,8.04
2022-08-27T01:24:29.645Z,5.27
2022-08-27T01:29:35.926Z,8.69
2022-08-27T01:34:42.402Z,6.88
2022-08-27T01:39:48.730Z,5.57
2022-08-27T01:44:54.348Z,7.13
2022-08-27T01:50:00.664Z,8.89
2022-08-27T01:55:07.204Z,5.89
2022-08-27T02:00:13.405Z,6.57
2022-08-27T02:05:19.577Z,5.99
2022-08-27T02:10:25.912Z,7.07
2022-08-27T02:15:32.172Z,6.12
2022-08-27T02:20:38.408Z,4.96
2022-08-27T02:25:44.661Z,5.55
2022-08-27T02:30:51.000Z,5.26
2022-08-27T02:35:57.236Z,5.32
2022-08-27T02:41:03.621Z,4.48
2022-08-27T02:46:09.813Z,7.63
2022-08-27T02:51:16.336Z,6.93
2022-08-27T02:56:22.501Z,4.40
2022-08-27T03:01:28.285Z,4.47
2022-08-27T03:06:34.543Z,4.83
2022-08-27T03:11:40.991Z,7.88
2022-08-27T03:16:47.277Z,7.01
2022-08-27T03:21:54.689Z,4.98
2022-08-27T03:26:59.136Z,4.17
2022-08-27T03:32:05.456Z,6.15
2022-08-27T03:37:11.761Z,4.36
2022-08-27T03:42:18.002Z,6.19
2022-08-27T03:47:24.117Z,3.46
2022-08-27T03:52:30.444Z,6.93
2022-08-27T03:57:36.510Z,5.83
2022-08-27T04:02:42.805Z,4.33
2022-08-27T04:07:48.945Z,5.05
2022-08-27T04:12:55.293Z,5.12
2022-08-27T04:18:01.430Z,4.91
2022-08-27T04:23:07.248Z,5.62
2022-08-27T04:28:13.355Z,5.02
2022-08-27T04:33:19.580Z,5.43
2022-08-27T04:38:25.771Z,3.44
2022-08-27T04:43:32.000Z,3.82
2022-08-27T04:48:38.522Z,4.50
2022-08-27T04:53:44.467Z,6.04
2022-08-27T04:58:50.576Z,5.62
2022-08-27T05:03:56.977Z,7.65
2022-08-27T05:09:03.149Z,5.82
2022-08-27T05:14:09.560Z,5.75
2022-08-27T05:19:15.665Z,5.21
2022-08-27T05:24:21.908Z,6.73
2022-08-27T05:29:28.110Z,4.97
2022-08-27T05:34:34.374Z,6.72
2022-08-27T05:39:40.780Z,4.85
2022-08-27T05:44:47.110Z,5.63
2022-08-27T05:49:53.248Z,4.53
2022-08-27T05:54:59.533Z,5.11
2022-08-27T06:00:05.617Z,4.21
2022-08-27T06:05:11.969Z,6.76
2022-08-27T06:10:18.038Z,5.71
2022-08-27T06:15:24.312Z,5.97
2022-08-27T06:20:30.610Z,6.89
2022-08-27T06:25:36.987Z,9.15
2022-08-27T06:30:43.941Z,5.39
2022-08-27T06:35:50.065Z,6.75
2022-08-27T06:40:56.308Z,7.21
2022-08-27T06:46:02.825Z,8.63
2022-08-27T06:51:08.856Z,6.21
2022-08-27T06:56:15.201Z,6.61
2022-08-27T07:01:21.484Z,9.16
2022-08-27T07:06:28.138Z,5.27
2022-08-27T07:11:33.405Z,7.08
2022-08-27T07:16:40.971Z,4.45
2022-08-27T07:21:45.516Z,7.49
2022-08-27T07:26:51.924Z,7.06
2022-08-27T07:31:58.089Z,8.46
2022-08-27T07:37:04.409Z,7.94
2022-08-27T07:42:10.633Z,4.99
2022-08-27T07:47:17.108Z,8.61
2022-08-27T07:52:26.476Z,9.32
2022-08-27T07:57:29.268Z,7.94
2022-08-27T08:02:35.436Z,8.41
2022-08-27T08:07:41.633Z,8.74
2022-08-27T08:12:47.744Z,8.98
2022-08-27T08:17:54.398Z,9.98
2022-08-27T08:23:00.773Z,9.37
2022-08-27T08:28:07.212Z,8.15
2022-08-27T08:33:13.287Z,8.56
2022-08-27T08:38:19.516Z,8.12
2022-08-27T08:43:25.672Z,10.28
2022-08-27T08:48:31.917Z,6.01
2022-08-27T08:53:38.092Z,8.37
2022-08-27T08:58:44.192Z,8.99
2022-08-27T09:03:50.478Z,9.08
2022-08-27T09:08:56.996Z,8.35
2022-08-27T09:14:03.476Z,7.02
2022-08-27T09:19:13.061Z,11.28
2022-08-27T09:24:15.452Z,8.70
2022-08-27T09:29:21.781Z,6.56
2022-08-27T09:34:27.943Z,7.47
2022-08-27T09:39:34.254Z,7.57
2022-08-27T09:44:40.406Z,9.95
2022-08-27T09:49:46.724Z,7.58
2022-08-27T09:54:52.901Z,8.99
2022-08-27T09:59:59.193Z,7.35
2022-08-27T10:05:05.324Z,7.64
2022-08-27T10:10:11.511Z,8.96
2022-08-27T10:15:17.673Z,5.81
2022-08-27T10:20:29.567Z,7.57
2022-08-27T10:25:29.637Z,7.90
2022-08-27T10:31:37.842Z,7.90
2022-08-27T10:36:43.946Z,9.82
2022-08-27T10:41:50.657Z,7.55
2022-08-27T10:46:56.853Z,6.92
2022-08-27T10:52:07.698Z,8.87
2022-08-27T10:57:28.902Z,5.66
2022-08-27T11:02:15.739Z,7.60
2022-08-27T11:07:22.110Z,8.24
2022-08-27T11:12:28.433Z,5.14
2022-08-27T11:17:34.697Z,4.40
2022-08-27T11:22:41.365Z,5.63
2022-08-27T11:27:47.486Z,5.44
2022-08-27T11:32:53.889Z,8.52
2022-08-27T11:38:00.104Z,7.87
2022-08-27T11:43:06.379Z,7.19
2022-08-27T11:48:12.720Z,6.36
2022-08-27T11:53:19.098Z,7.30
2022-08-27T11:58:25.211Z,6.68
2022-08-27T12:03:31.633Z,6.33
2022-08-27T12:08:37.462Z,6.94
2022-08-27T12:13:43.841Z,6.60
2022-08-27T12:18:50.292Z,6.86
2022-08-27T12:23:56.798Z,6.02
2022-08-27T12:29:02.969Z,7.84
2022-08-27T12:34:09.194Z,6.68
2022-08-27T12:39:15.400Z,6.68
2022-08-27T12:44:21.612Z,6.00
2022-08-27T12:49:38.214Z,7.08
2022-08-27T12:55:43.229Z,8.92
2022-08-27T13:00:49.500Z,5.09
2022-08-27T13:05:55.671Z,6.82
2022-08-27T13:11:01.919Z,7.08
2022-08-27T13:16:08.296Z,5.57
2022-08-27T13:21:14.586Z,5.24
2022-08-27T13:26:21.126Z,6.52
2022-08-27T13:31:27.269Z,5.49
2022-08-27T13:36:33.653Z,3.59
2022-08-27T13:41:39.781Z,5.48
2022-08-27T13:46:46.061Z,8.26
2022-08-27T13:51:52.094Z,6.41
2022-08-27T13:56:58.358Z,8.07
2022-08-27T14:02:04.725Z,7.15
2022-08-27T14:07:11.068Z,4.90
2022-08-27T14:12:17.185Z,3.58
2022-08-27T14:17:25.794Z,6.92
2022-08-27T14:22:29.278Z,5.79
2022-08-27T14:27:35.621Z,4.63
2022-08-27T14:32:41.907Z,6.30
2022-08-27T14:37:48.121Z,4.09
2022-08-27T14:42:54.397Z,6.09
2022-08-27T14:48:02.429Z,6.05
2022-08-27T14:53:06.785Z,9.02
2022-08-27T14:58:13.238Z,7.27
2022-08-27T15:03:19.589Z,5.30
2022-08-27T15:08:29.438Z,6.55
2022-08-27T15:13:31.694Z,6.32
2022-08-27T15:18:37.985Z,4.45
2022-08-27T15:23:43.614Z,5.66
2022-08-27T15:28:50.598Z,5.28
2022-08-27T15:33:55.474Z,5.38
2022-08-27T15:39:02.090Z,11.01
2022-08-27T15:44:08.354Z,6.11
2022-08-27T15:49:14.698Z,6.28
2022-08-27T15:54:20.865Z,6.31
2022-08-27T15:59:27.129Z,9.20
2022-08-27T16:04:33.294Z,6.44
2022-08-27T16:09:39.540Z,9.00
2022-08-27T16:14:45.738Z,9.13
2022-08-27T16:19:51.591Z,9.96
2022-08-27T16:24:57.721Z,8.92
2022-08-27T16:30:04.127Z,6.09
2022-08-27T16:35:10.421Z,8.74
2022-08-27T16:40:16.725Z,8.31
2022-08-27T16:45:22.843Z,14.42
2022-08-27T16:50:29.271Z,9.42
2022-08-27T16:55:35.479Z,12.21
2022-08-27T17:00:41.878Z,11.61
2022-08-27T17:05:48.013Z,9.61
2022-08-27T17:10:53.753Z,10.38
2022-08-27T17:15:59.933Z,11.53
2022-08-27T17:21:06.269Z,12.74
2022-08-27T17:26:12.425Z,9.26
2022-08-27T17:31:18.798Z,10.11
2022-08-27T17:36:24.406Z,11.95
2022-08-27T17:41:33.636Z,10.14
2022-08-27T17:46:35.873Z,8.69
2022-08-27T17:51:42.257Z,10.68
2022-08-27T17:56:48.366Z,11.64
2022-08-27T18:01:54.657Z,9.94
2022-08-27T18:07:00.732Z,12.14
2022-08-27T18:12:07.046Z,13.69
2022-08-27T18:17:13.689Z,12.30
2022-08-27T18:22:19.049Z,12.08
2022-08-27T18:27:25.246Z,11.53
2022-08-27T18:32:31.568Z,31.03
2022-08-27T18:37:37.710Z,25.48
2022-08-27T18:42:44.230Z,13.58
2022-08-27T18:47:50.706Z,13.77
2022-08-27T18:52:56.286Z,12.19
2022-08-27T18:58:02.378Z,12.73
2022-08-27T19:03:08.810Z,12.79
2022-08-27T19:08:15.239Z,14.18
2022-08-27T19:13:20.362Z,11.41
2022-08-27T19:18:26.587Z,12.32
2022-08-27T19:23:32.821Z,13.17
2022-08-27T19:28:38.975Z,13.55
2022-08-27T19:33:45.278Z,12.60
2022-08-27T19:38:51.482Z,10.07
2022-08-27T19:43:57.838Z,12.37
2022-08-27T19:49:03.989Z,12.19
2022-08-27T19:54:10.301Z,13.19
2022-08-27T19:59:20.380Z,10.72
2022-08-27T20:04:22.294Z,13.40
2022-08-27T20:09:28.531Z,13.05
2022-08-27T20:14:34.811Z,12.28
2022-08-27T20:19:40.451Z,12.58
2022-08-27T20:24:46.693Z,11.21
2022-08-27T20:29:52.826Z,13.37
2022-08-27T20:34:59.090Z,13.51
2022-08-27T20:40:05.350Z,12.07
2022-08-27T20:45:12.504Z,15.44
2022-08-27T20:50:17.253Z,12.36
2022-08-27T20:55:23.421Z,13.24
2022-08-27T21:00:29.513Z,13.78
2022-08-27T21:05:35.770Z,10.63
2022-08-27T21:10:41.877Z,11.44
2022-08-27T21:15:48.099Z,12.44
2022-08-27T21:20:54.201Z,13.05
2022-08-27T21:26:00.441Z,14.12
2022-08-27T21:31:06.571Z,9.47
2022-08-27T21:36:12.802Z,10.88
2022-08-27T21:41:18.934Z,12.90
2022-08-27T21:46:25.240Z,12.41
2022-08-27T21:51:31.412Z,11.08
2022-08-27T21:56:37.814Z,12.69
2022-08-27T22:01:44.376Z,10.86
2022-08-27T22:06:50.773Z,11.59
2022-08-27T22:11:56.845Z,7.88
2022-08-27T22:17:03.482Z,11.11
2022-08-27T22:22:09.578Z,12.87
2022-08-27T22:27:15.926Z,10.72
2022-08-27T22:32:22.090Z,10.41
2022-08-27T22:37:28.414Z,9.15
2022-08-27T22:42:34.554Z,10.32
2022-08-27T22:47:40.437Z,9.49
2022-08-27T22:52:46.610Z,10.96
2022-08-27T22:57:52.945Z,10.58
2022-08-27T23:02:59.122Z,9.99
2022-08-27T23:08:05.395Z,9.78
2022-08-27T23:13:11.649Z,8.99
2022-08-27T23:18:18.011Z,11.56
2022-08-27T23:23:26.703Z,10.61
2022-08-27T23:28:29.961Z,11.29
2022-08-27T23:33:36.211Z,10.18
2022-08-27T23:38:42.793Z,11.82
2022-08-27T23:43:48.989Z,12.45
2022-08-27T23:48:55.261Z,13.99
2022-08-27T23:54:01.496Z,11.63
2022-08-27T23:59:07.784Z,10.15
